Florennes, Belgium
Current Conditions -  °F | °C
As of 1:25 PM on Friday 28 Nov 2014 (Local Time) from EBFS Reporting Station
Broken Clouds Broken Clouds  
Wind Chill: 54°   Ceiling: 7000
Heat Index: 54°   Visibility: 6mi
Dew Point: 41°   Wind: 7mph
Humidity: 62%   Direction: 120°ESE
Pressure: 29.68"   Gusts: NA
Location:  50.26°N, 4.65°E
Report Text: EBFS 281225Z 12006KT 9999 BKN070 12/05 Q1005 BLU
Loading
Personal Weather Stations






























Interactive Weather Map New forecast layout! Learn more

10-Day Weather Forecast

Advertisements
Track Severe Weather on mobile